sensor_id;sensor_type;location;lat;lon;timestamp;temperature;humidity
2973;DHT22;1496;51.404;7.232;2023-03-01T00:01:30;0.40;99.90
2973;DHT22;1496;51.404;7.232;2023-03-01T00:03:57;0.40;99.90
2973;DHT22;1496;51.404;7.232;2023-03-01T00:06:24;0.40;99.90
2973;DHT22;1496;51.404;7.232;2023-03-01T00:08:50;0.30;99.90
2973;DHT22;1496;51.404;7.232;2023-03-01T00:11:22;0.40;99.90
2973;DHT22;1496;51.404;7.232;2023-03-01T00:13:50;0.40;99.90
2973;DHT22;1496;51.404;7.232;2023-03-01T00:16:26;0.50;99.90
2973;DHT22;1496;51.404;7.232;2023-03-01T00:18:53;0.40;99.90
2973;DHT22;1496;51.404;7.232;2023-03-01T00:21:21;0.40;99.90
2973;DHT22;1496;51.404;7.232;2023-03-01T00:23:48;0.40;99.90
2973;DHT22;1496;51.404;7.232;2023-03-01T00:26:15;0.40;99.90
2973;DHT22;1496;51.404;7.232;2023-03-01T00:28:42;0.50;99.90
2973;DHT22;1496;51.404;7.232;2023-03-01T00:31:13;0.40;99.90
2973;DHT22;1496;51.404;7.232;2023-03-01T00:33:40;0.40;99.90
2973;DHT22;1496;51.404;7.232;2023-03-01T00:36:06;0.40;99.90
2973;DHT22;1496;51.404;7.232;2023-03-01T00:38:35;0.30;99.90
2973;DHT22;1496;51.404;7.232;2023-03-01T00:41:10;0.30;99.90
2973;DHT22;1496;51.404;7.232;2023-03-01T00:43:36;0.20;99.90
2973;DHT22;1496;51.404;7.232;2023-03-01T00:46:07;0.20;99.90
2973;DHT22;1496;51.404;7.232;2023-03-01T00:48:34;0.20;99.90
2973;DHT22;1496;51.404;7.232;2023-03-01T00:51:11;0.20;99.90
2973;DHT22;1496;51.404;7.232;2023-03-01T00:53:37;0.20;99.90
2973;DHT22;1496;51.404;7.232;2023-03-01T00:56:04;0.20;99.90
2973;DHT22;1496;51.404;7.232;2023-03-01T00:58:30;0.20;99.90
2973;DHT22;1496;51.404;7.232;2023-03-01T01:00:56;0.20;99.90
2973;DHT22;1496;51.404;7.232;2023-03-01T01:03:22;0.20;99.90
2973;DHT22;1496;51.404;7.232;2023-03-01T01:05:50;0.20;99.90
2973;DHT22;1496;51.404;7.232;2023-03-01T01:08:17;0.10;99.90
2973;DHT22;1496;51.404;7.232;2023-03-01T01:10:44;0.20;99.90
2973;DHT22;1496;51.404;7.232;2023-03-01T01:13:11;0.10;99.90
2973;DHT22;1496;51.404;7.232;2023-03-01T01:15:37;0.20;99.90
2973;DHT22;1496;51.404;7.232;2023-03-01T01:18:02;0.10;99.90
2973;DHT22;1496;51.404;7.232;2023-03-01T01:20:28;0.20;99.90
2973;DHT22;1496;51.404;7.232;2023-03-01T01:22:54;0.20;99.90
2973;DHT22;1496;51.404;7.232;2023-03-01T01:25:20;0.20;99.90
2973;DHT22;1496;51.404;7.232;2023-03-01T01:27:46;0.20;99.90
2973;DHT22;1496;51.404;7.232;2023-03-01T01:30:12;0.10;99.90
2973;DHT22;1496;51.404;7.232;2023-03-01T01:32:38;0.10;99.90
2973;DHT22;1496;51.404;7.232;2023-03-01T01:35:04;0.10;99.90
2973;DHT22;1496;51.404;7.232;2023-03-01T01:37:30;0.10;99.90
2973;DHT22;1496;51.404;7.232;2023-03-01T01:39:59;0.10;99.90
2973;DHT22;1496;51.404;7.232;2023-03-01T01:42:25;0.00;99.90
2973;DHT22;1496;51.404;7.232;2023-03-01T01:47:57;0.00;99.90
2973;DHT22;1496;51.404;7.232;2023-03-01T01:50:24;-0.10;99.90
2973;DHT22;1496;51.404;7.232;2023-03-01T01:52:51;-0.10;99.90
2973;DHT22;1496;51.404;7.232;2023-03-01T01:55:21;-0.20;99.90
2973;DHT22;1496;51.404;7.232;2023-03-01T01:57:55;-0.10;99.90
2973;DHT22;1496;51.404;7.232;2023-03-01T02:00:27;-0.10;99.90
2973;DHT22;1496;51.404;7.232;2023-03-01T02:03:02;-0.20;99.90
2973;DHT22;1496;51.404;7.232;2023-03-01T02:08:14;-0.20;99.90
2973;DHT22;1496;51.404;7.232;2023-03-01T02:10:42;-0.20;99.90
2973;DHT22;1496;51.404;7.232;2023-03-01T02:13:09;-0.30;99.90
2973;DHT22;1496;51.404;7.232;2023-03-01T02:15:35;-0.30;99.90
2973;DHT22;1496;51.404;7.232;2023-03-01T02:18:05;-0.30;99.90
2973;DHT22;1496;51.404;7.232;2023-03-01T02:23:20;-0.30;99.90
2973;DHT22;1496;51.404;7.232;2023-03-01T02:28:36;-0.20;99.90
2973;DHT22;1496;51.404;7.232;2023-03-01T02:31:04;-0.30;99.90
2973;DHT22;1496;51.404;7.232;2023-03-01T02:33:50;-0.30;99.90
2973;DHT22;1496;51.404;7.232;2023-03-01T02:36:19;-0.30;99.90
2973;DHT22;1496;51.404;7.232;2023-03-01T02:38:48;-0.30;99.90
2973;DHT22;1496;51.404;7.232;2023-03-01T02:41:16;-0.40;99.90
2973;DHT22;1496;51.404;7.232;2023-03-01T02:43:43;-0.50;99.90
2973;DHT22;1496;51.404;7.232;2023-03-01T02:46:18;-0.50;99.90
2973;DHT22;1496;51.404;7.232;2023-03-01T02:48:46;-0.40;99.90
2973;DHT22;1496;51.404;7.232;2023-03-01T02:51:32;-0.40;99.90
2973;DHT22;1496;51.404;7.232;2023-03-01T02:57:10;-0.50;99.90
2973;DHT22;1496;51.404;7.232;2023-03-01T02:59:38;-0.50;99.90
2973;DHT22;1496;51.404;7.232;2023-03-01T03:02:29;-0.50;99.90
2973;DHT22;1496;51.404;7.232;2023-03-01T03:05:14;-0.50;99.90
2973;DHT22;1496;51.404;7.232;2023-03-01T03:07:43;-0.60;99.90
2973;DHT22;1496;51.404;7.232;2023-03-01T03:10:13;-0.50;99.90
2973;DHT22;1496;51.404;7.232;2023-03-01T03:12:40;-0.60;99.90
2973;DHT22;1496;51.404;7.232;2023-03-01T03:15:08;-0.60;99.90
2973;DHT22;1496;51.404;7.232;2023-03-01T03:17:39;-0.60;99.90
2973;DHT22;1496;51.404;7.232;2023-03-01T03:20:07;-0.70;99.90
2973;DHT22;1496;51.404;7.232;2023-03-01T03:22:37;-0.60;99.90
2973;DHT22;1496;51.404;7.232;2023-03-01T03:25:03;-0.70;99.90
2973;DHT22;1496;51.404;7.232;2023-03-01T03:27:29;-0.70;99.90
2973;DHT22;1496;51.404;7.232;2023-03-01T03:29:57;-0.70;99.90
2973;DHT22;1496;51.404;7.232;2023-03-01T03:32:22;-0.80;99.90
2973;DHT22;1496;51.404;7.232;2023-03-01T03:34:48;-0.80;99.90
2973;DHT22;1496;51.404;7.232;2023-03-01T03:37:14;-0.80;99.90
2973;DHT22;1496;51.404;7.232;2023-03-01T03:40:00;-0.80;99.90
2973;DHT22;1496;51.404;7.232;2023-03-01T03:42:25;-0.80;99.90
2973;DHT22;1496;51.404;7.232;2023-03-01T03:44:51;-0.80;99.90
2973;DHT22;1496;51.404;7.232;2023-03-01T03:47:16;-0.80;99.90
2973;DHT22;1496;51.404;7.232;2023-03-01T03:49:42;-0.80;99.90
2973;DHT22;1496;51.404;7.232;2023-03-01T03:52:08;-0.80;99.90
2973;DHT22;1496;51.404;7.232;2023-03-01T03:54:40;-0.80;99.90
2973;DHT22;1496;51.404;7.232;2023-03-01T03:57:06;-0.80;99.90
2973;DHT22;1496;51.404;7.232;2023-03-01T03:59:31;-0.80;99.90
2973;DHT22;1496;51.404;7.232;2023-03-01T04:01:57;-0.90;99.90
2973;DHT22;1496;51.404;7.232;2023-03-01T04:04:23;-0.90;99.90
2973;DHT22;1496;51.404;7.232;2023-03-01T04:06:48;-1.00;99.90
2973;DHT22;1496;51.404;7.232;2023-03-01T04:09:14;-1.00;99.90
2973;DHT22;1496;51.404;7.232;2023-03-01T04:11:39;-0.90;99.90
2973;DHT22;1496;51.404;7.232;2023-03-01T04:14:05;-1.00;99.90
2973;DHT22;1496;51.404;7.232;2023-03-01T04:16:31;-0.90;99.90
2973;DHT22;1496;51.404;7.232;2023-03-01T04:18:56;-0.90;99.90
2973;DHT22;1496;51.404;7.232;2023-03-01T04:21:25;-0.90;99.90
2973;DHT22;1496;51.404;7.232;2023-03-01T04:23:50;-0.80;99.90
2973;DHT22;1496;51.404;7.232;2023-03-01T04:26:19;-0.90;99.90
2973;DHT22;1496;51.404;7.232;2023-03-01T04:28:45;-0.90;99.90
2973;DHT22;1496;51.404;7.232;2023-03-01T04:31:17;-1.00;99.90
2973;DHT22;1496;51.404;7.232;2023-03-01T04:33:54;-1.00;99.90
2973;DHT22;1496;51.404;7.232;2023-03-01T04:36:24;-1.00;99.90
2973;DHT22;1496;51.404;7.232;2023-03-01T04:38:50;-1.00;99.90
2973;DHT22;1496;51.404;7.232;2023-03-01T04:41:18;-1.00;99.90
2973;DHT22;1496;51.404;7.232;2023-03-01T04:43:44;-1.10;99.90
2973;DHT22;1496;51.404;7.232;2023-03-01T04:46:13;-1.20;99.90
2973;DHT22;1496;51.404;7.232;2023-03-01T04:48:40;-1.20;99.90
2973;DHT22;1496;51.404;7.232;2023-03-01T04:51:06;-1.30;99.90
2973;DHT22;1496;51.404;7.232;2023-03-01T04:53:33;-1.30;99.90
2973;DHT22;1496;51.404;7.232;2023-03-01T04:55:59;-1.30;99.90
2973;DHT22;1496;51.404;7.232;2023-03-01T04:58:26;-1.40;99.90
2973;DHT22;1496;51.404;7.232;2023-03-01T05:00:53;-1.40;99.90
2973;DHT22;1496;51.404;7.232;2023-03-01T05:03:19;-1.40;99.90
2973;DHT22;1496;51.404;7.232;2023-03-01T05:05:49;-1.40;99.90
2973;DHT22;1496;51.404;7.232;2023-03-01T05:08:15;-1.50;99.90
2973;DHT22;1496;51.404;7.232;2023-03-01T05:10:50;-1.40;99.90
2973;DHT22;1496;51.404;7.232;2023-03-01T05:13:16;-1.50;99.90
2973;DHT22;1496;51.404;7.232;2023-03-01T05:15:57;-1.50;99.90
2973;DHT22;1496;51.404;7.232;2023-03-01T05:18:25;-1.60;99.90
2973;DHT22;1496;51.404;7.232;2023-03-01T05:20:55;-1.50;99.90
2973;DHT22;1496;51.404;7.232;2023-03-01T05:23:24;-1.60;99.90
2973;DHT22;1496;51.404;7.232;2023-03-01T05:25:50;-1.70;99.90
2973;DHT22;1496;51.404;7.232;2023-03-01T05:28:18;-1.70;99.90
2973;DHT22;1496;51.404;7.232;2023-03-01T05:30:45;-1.80;99.90
2973;DHT22;1496;51.404;7.232;2023-03-01T05:33:11;-1.90;99.90
2973;DHT22;1496;51.404;7.232;2023-03-01T05:35:43;-1.90;99.90
2973;DHT22;1496;51.404;7.232;2023-03-01T05:38:13;-1.90;99.90
2973;DHT22;1496;51.404;7.232;2023-03-01T05:40:40;-1.90;99.90
2973;DHT22;1496;51.404;7.232;2023-03-01T05:43:06;-1.80;99.90
2973;DHT22;1496;51.404;7.232;2023-03-01T05:45:32;-1.80;99.90
2973;DHT22;1496;51.404;7.232;2023-03-01T05:48:00;-1.80;99.90
2973;DHT22;1496;51.404;7.232;2023-03-01T05:50:28;-1.80;99.90
2973;DHT22;1496;51.404;7.232;2023-03-01T05:53:01;-1.80;99.90
2973;DHT22;1496;51.404;7.232;2023-03-01T05:55:28;-1.80;99.90
2973;DHT22;1496;51.404;7.232;2023-03-01T05:57:54;-1.80;99.90
2973;DHT22;1496;51.404;7.232;2023-03-01T06:00:20;-1.80;99.90
2973;DHT22;1496;51.404;7.232;2023-03-01T06:02:48;-1.80;99.90
2973;DHT22;1496;51.404;7.232;2023-03-01T06:05:14;-1.80;99.90
2973;DHT22;1496;51.404;7.232;2023-03-01T06:07:40;-1.80;99.90
2973;DHT22;1496;51.404;7.232;2023-03-01T06:10:07;-1.90;99.90
2973;DHT22;1496;51.404;7.232;2023-03-01T06:12:35;-1.90;99.90
2973;DHT22;1496;51.404;7.232;2023-03-01T06:15:01;-1.90;99.90
2973;DHT22;1496;51.404;7.232;2023-03-01T06:17:30;-1.90;99.90
2973;DHT22;1496;51.404;7.232;2023-03-01T06:19:56;-1.90;99.90
2973;DHT22;1496;51.404;7.232;2023-03-01T06:22:21;-2.00;99.90
2973;DHT22;1496;51.404;7.232;2023-03-01T06:24:47;-2.10;99.90
2973;DHT22;1496;51.404;7.232;2023-03-01T06:27:12;-2.10;99.90
2973;DHT22;1496;51.404;7.232;2023-03-01T06:29:38;-2.10;99.90
2973;DHT22;1496;51.404;7.232;2023-03-01T06:32:04;-2.00;99.90
2973;DHT22;1496;51.404;7.232;2023-03-01T06:34:30;-2.00;99.90
2973;DHT22;1496;51.404;7.232;2023-03-01T06:36:55;-2.00;99.90
2973;DHT22;1496;51.404;7.232;2023-03-01T06:39:21;-2.00;99.90
2973;DHT22;1496;51.404;7.232;2023-03-01T06:41:46;-2.00;99.90
2973;DHT22;1496;51.404;7.232;2023-03-01T06:44:12;-2.00;99.90
2973;DHT22;1496;51.404;7.232;2023-03-01T06:46:39;-2.00;99.90
2973;DHT22;1496;51.404;7.232;2023-03-01T06:49:06;-2.00;99.90
2973;DHT22;1496;51.404;7.232;2023-03-01T06:51:35;-2.10;99.90
2973;DHT22;1496;51.404;7.232;2023-03-01T06:54:02;-2.10;99.90
2973;DHT22;1496;51.404;7.232;2023-03-01T06:56:27;-2.10;99.90
2973;DHT22;1496;51.404;7.232;2023-03-01T06:58:53;-2.00;99.90
2973;DHT22;1496;51.404;7.232;2023-03-01T07:01:19;-1.90;99.90
2973;DHT22;1496;51.404;7.232;2023-03-01T07:03:44;-1.90;99.90
2973;DHT22;1496;51.404;7.232;2023-03-01T07:06:10;-1.90;99.90
2973;DHT22;1496;51.404;7.232;2023-03-01T07:08:35;-1.90;99.90
2973;DHT22;1496;51.404;7.232;2023-03-01T07:11:01;-1.80;99.90
2973;DHT22;1496;51.404;7.232;2023-03-01T07:13:28;-1.80;99.90
2973;DHT22;1496;51.404;7.232;2023-03-01T07:15:55;-1.80;99.90
2973;DHT22;1496;51.404;7.232;2023-03-01T07:18:21;-1.80;99.90
2973;DHT22;1496;51.404;7.232;2023-03-01T07:20:46;-1.80;99.90
2973;DHT22;1496;51.404;7.232;2023-03-01T07:23:12;-1.80;99.90
2973;DHT22;1496;51.404;7.232;2023-03-01T07:25:37;-1.80;99.90
2973;DHT22;1496;51.404;7.232;2023-03-01T07:28:03;-1.80;99.90
2973;DHT22;1496;51.404;7.232;2023-03-01T07:30:29;-1.80;99.90
2973;DHT22;1496;51.404;7.232;2023-03-01T07:32:56;-1.80;99.90
2973;DHT22;1496;51.404;7.232;2023-03-01T07:35:23;-1.90;99.90
2973;DHT22;1496;51.404;7.232;2023-03-01T07:37:50;-1.80;99.90
2973;DHT22;1496;51.404;7.232;2023-03-01T07:40:16;-1.70;99.90
2973;DHT22;1496;51.404;7.232;2023-03-01T07:42:41;-1.60;99.90
2973;DHT22;1496;51.404;7.232;2023-03-01T07:45:08;-1.50;99.90
2973;DHT22;1496;51.404;7.232;2023-03-01T07:47:35;-1.40;99.90
2973;DHT22;1496;51.404;7.232;2023-03-01T07:50:00;-1.30;99.90
2973;DHT22;1496;51.404;7.232;2023-03-01T07:52:29;-1.20;99.90
2973;DHT22;1496;51.404;7.232;2023-03-01T07:54:56;-1.20;99.90
2973;DHT22;1496;51.404;7.232;2023-03-01T07:57:22;-1.00;99.90
2973;DHT22;1496;51.404;7.232;2023-03-01T07:59:48;-1.10;99.90
2973;DHT22;1496;51.404;7.232;2023-03-01T08:02:13;-1.00;99.90
2973;DHT22;1496;51.404;7.232;2023-03-01T08:04:41;-0.90;99.90
2973;DHT22;1496;51.404;7.232;2023-03-01T08:07:07;-0.70;99.90
2973;DHT22;1496;51.404;7.232;2023-03-01T08:09:36;-0.70;99.90
2973;DHT22;1496;51.404;7.232;2023-03-01T08:12:03;-0.70;99.90
2973;DHT22;1496;51.404;7.232;2023-03-01T08:14:30;-0.60;99.90
2973;DHT22;1496;51.404;7.232;2023-03-01T08:16:56;-0.50;99.90
2973;DHT22;1496;51.404;7.232;2023-03-01T08:19:22;-0.40;99.90
2973;DHT22;1496;51.404;7.232;2023-03-01T08:21:48;-0.30;99.90
2973;DHT22;1496;51.404;7.232;2023-03-01T08:24:14;-0.20;99.90
2973;DHT22;1496;51.404;7.232;2023-03-01T08:26:39;-0.20;99.90
2973;DHT22;1496;51.404;7.232;2023-03-01T08:29:05;-0.10;99.90
2973;DHT22;1496;51.404;7.232;2023-03-01T08:31:34;-0.10;99.90
2973;DHT22;1496;51.404;7.232;2023-03-01T08:34:05;-0.10;99.90
2973;DHT22;1496;51.404;7.232;2023-03-01T08:36:35;-0.10;99.90
2973;DHT22;1496;51.404;7.232;2023-03-01T08:39:03;-0.10;99.90
2973;DHT22;1496;51.404;7.232;2023-03-01T08:41:28;0.10;99.90
2973;DHT22;1496;51.404;7.232;2023-03-01T08:43:55;0.20;99.90
2973;DHT22;1496;51.404;7.232;2023-03-01T08:46:26;0.20;99.90
2973;DHT22;1496;51.404;7.232;2023-03-01T08:48:52;0.30;99.90
2973;DHT22;1496;51.404;7.232;2023-03-01T08:51:20;0.40;99.90
2973;DHT22;1496;51.404;7.232;2023-03-01T08:53:46;0.60;99.90
2973;DHT22;1496;51.404;7.232;2023-03-01T08:56:12;0.70;99.90
2973;DHT22;1496;51.404;7.232;2023-03-01T08:58:38;0.70;99.90
2973;DHT22;1496;51.404;7.232;2023-03-01T09:01:08;0.80;99.90
2973;DHT22;1496;51.404;7.232;2023-03-01T09:03:34;0.80;99.90
2973;DHT22;1496;51.404;7.232;2023-03-01T09:06:00;0.80;99.90
2973;DHT22;1496;51.404;7.232;2023-03-01T09:08:27;0.90;99.90
2973;DHT22;1496;51.404;7.232;2023-03-01T09:10:53;0.90;99.90
2973;DHT22;1496;51.404;7.232;2023-03-01T09:13:18;1.10;99.90
2973;DHT22;1496;51.404;7.232;2023-03-01T09:15:44;1.20;99.90
2973;DHT22;1496;51.404;7.232;2023-03-01T09:18:09;1.30;99.90
2973;DHT22;1496;51.404;7.232;2023-03-01T09:20:35;1.50;99.90
2973;DHT22;1496;51.404;7.232;2023-03-01T09:23:01;1.60;99.90
2973;DHT22;1496;51.404;7.232;2023-03-01T09:25:26;1.60;99.90
2973;DHT22;1496;51.404;7.232;2023-03-01T09:27:52;1.70;99.90
2973;DHT22;1496;51.404;7.232;2023-03-01T09:30:19;1.70;99.90
2973;DHT22;1496;51.404;7.232;2023-03-01T09:32:44;1.80;99.90
2973;DHT22;1496;51.404;7.232;2023-03-01T09:35:11;1.90;99.90
2973;DHT22;1496;51.404;7.232;2023-03-01T09:37:37;2.00;99.90
2973;DHT22;1496;51.404;7.232;2023-03-01T09:40:11;2.10;99.90
2973;DHT22;1496;51.404;7.232;2023-03-01T09:42:48;2.20;99.90
2973;DHT22;1496;51.404;7.232;2023-03-01T09:45:45;2.20;99.90
2973;DHT22;1496;51.404;7.232;2023-03-01T09:48:21;2.20;99.90
2973;DHT22;1496;51.404;7.232;2023-03-01T09:50:50;2.30;99.90
2973;DHT22;1496;51.404;7.232;2023-03-01T09:53:20;2.40;99.90
2973;DHT22;1496;51.404;7.232;2023-03-01T09:56:12;2.40;99.90
2973;DHT22;1496;51.404;7.232;2023-03-01T09:58:56;2.50;99.90
2973;DHT22;1496;51.404;7.232;2023-03-01T10:01:52;2.60;99.90
2973;DHT22;1496;51.404;7.232;2023-03-01T10:04:47;2.70;99.90
2973;DHT22;1496;51.404;7.232;2023-03-01T10:10:01;2.90;99.90
2973;DHT22;1496;51.404;7.232;2023-03-01T10:12:35;2.90;99.90
2973;DHT22;1496;51.404;7.232;2023-03-01T10:15:13;3.00;99.90
2973;DHT22;1496;51.404;7.232;2023-03-01T10:17:46;3.00;99.90
2973;DHT22;1496;51.404;7.232;2023-03-01T10:20:24;3.00;99.90
2973;DHT22;1496;51.404;7.232;2023-03-01T10:22:51;3.10;99.90
2973;DHT22;1496;51.404;7.232;2023-03-01T10:27:53;3.30;99.90
2973;DHT22;1496;51.404;7.232;2023-03-01T10:32:54;3.40;99.90
2973;DHT22;1496;51.404;7.232;2023-03-01T10:35:26;3.50;99.90
2973;DHT22;1496;51.404;7.232;2023-03-01T10:40:28;3.50;99.90
2973;DHT22;1496;51.404;7.232;2023-03-01T10:42:57;3.60;99.90
2973;DHT22;1496;51.404;7.232;2023-03-01T10:48:22;3.50;99.90
2973;DHT22;1496;51.404;7.232;2023-03-01T10:53:38;3.60;99.90
2973;DHT22;1496;51.404;7.232;2023-03-01T10:56:10;3.60;99.90
2973;DHT22;1496;51.404;7.232;2023-03-01T10:58:40;3.60;99.90
2973;DHT22;1496;51.404;7.232;2023-03-01T11:01:28;3.70;99.90
2973;DHT22;1496;51.404;7.232;2023-03-01T11:04:11;3.70;99.90
2973;DHT22;1496;51.404;7.232;2023-03-01T11:06:39;3.70;99.90
2973;DHT22;1496;51.404;7.232;2023-03-01T11:09:23;3.80;99.90
2973;DHT22;1496;51.404;7.232;2023-03-01T11:11:57;3.80;99.90
2973;DHT22;1496;51.404;7.232;2023-03-01T11:14:27;3.90;99.90
2973;DHT22;1496;51.404;7.232;2023-03-01T11:17:23;3.90;99.90
2973;DHT22;1496;51.404;7.232;2023-03-01T11:20:20;3.90;99.90
2973;DHT22;1496;51.404;7.232;2023-03-01T11:22:53;3.90;99.90
2973;DHT22;1496;51.404;7.232;2023-03-01T11:25:24;3.90;99.90
2973;DHT22;1496;51.404;7.232;2023-03-01T11:27:52;4.00;99.90
2973;DHT22;1496;51.404;7.232;2023-03-01T11:33:13;4.00;99.90
2973;DHT22;1496;51.404;7.232;2023-03-01T11:38:40;4.10;99.90
2973;DHT22;1496;51.404;7.232;2023-03-01T11:41:18;4.10;99.90
2973;DHT22;1496;51.404;7.232;2023-03-01T11:44:00;4.20;99.90
2973;DHT22;1496;51.404;7.232;2023-03-01T11:57:50;4.30;99.90
2973;DHT22;1496;51.404;7.232;2023-03-01T12:14:37;4.50;99.90
2973;DHT22;1496;51.404;7.232;2023-03-01T12:23:02;4.70;99.90
2973;DHT22;1496;51.404;7.232;2023-03-01T12:25:39;4.70;99.90
2973;DHT22;1496;51.404;7.232;2023-03-01T12:33:51;4.70;99.90
2973;DHT22;1496;51.404;7.232;2023-03-01T12:50:32;4.80;99.90
2973;DHT22;1496;51.404;7.232;2023-03-01T12:53:02;4.90;99.90
2973;DHT22;1496;51.404;7.232;2023-03-01T12:55:33;4.90;99.90
2973;DHT22;1496;51.404;7.232;2023-03-01T12:58:24;4.90;99.90
2973;DHT22;1496;51.404;7.232;2023-03-01T13:06:29;4.90;99.90
2973;DHT22;1496;51.404;7.232;2023-03-01T13:11:34;5.00;99.90
2973;DHT22;1496;51.404;7.232;2023-03-01T13:16:52;5.00;99.90
2973;DHT22;1496;51.404;7.232;2023-03-01T13:19:18;5.00;99.90
2973;DHT22;1496;51.404;7.232;2023-03-01T13:21:46;5.00;99.90
2973;DHT22;1496;51.404;7.232;2023-03-01T13:24:41;5.00;99.90
2973;DHT22;1496;51.404;7.232;2023-03-01T13:32:24;5.10;99.20
2973;DHT22;1496;51.404;7.232;2023-03-01T13:34:55;5.10;99.10
2973;DHT22;1496;51.404;7.232;2023-03-01T13:37:35;5.30;99.70
2973;DHT22;1496;51.404;7.232;2023-03-01T13:42:53;5.30;98.30
2973;DHT22;1496;51.404;7.232;2023-03-01T13:45:22;5.20;97.30
2973;DHT22;1496;51.404;7.232;2023-03-01T13:48:08;5.20;97.20
2973;DHT22;1496;51.404;7.232;2023-03-01T13:50:43;5.20;96.80
2973;DHT22;1496;51.404;7.232;2023-03-01T13:53:16;5.20;96.90
2973;DHT22;1496;51.404;7.232;2023-03-01T13:55:52;5.10;95.50
2973;DHT22;1496;51.404;7.232;2023-03-01T13:58:32;5.10;95.10
2973;DHT22;1496;51.404;7.232;2023-03-01T14:01:01;5.10;94.40
2973;DHT22;1496;51.404;7.232;2023-03-01T14:03:27;5.20;94.50
2973;DHT22;1496;51.404;7.232;2023-03-01T14:08:26;5.20;94.30
2973;DHT22;1496;51.404;7.232;2023-03-01T14:13:48;5.30;93.90
2973;DHT22;1496;51.404;7.232;2023-03-01T14:19:15;5.50;94.20
2973;DHT22;1496;51.404;7.232;2023-03-01T14:21:42;5.50;93.20
2973;DHT22;1496;51.404;7.232;2023-03-01T14:24:20;5.50;93.10
2973;DHT22;1496;51.404;7.232;2023-03-01T14:26:46;5.60;92.40
2973;DHT22;1496;51.404;7.232;2023-03-01T14:29:34;5.60;91.80
2973;DHT22;1496;51.404;7.232;2023-03-01T14:32:24;5.50;90.30
2973;DHT22;1496;51.404;7.232;2023-03-01T14:34:51;5.50;90.00
2973;DHT22;1496;51.404;7.232;2023-03-01T14:37:21;5.50;89.30
2973;DHT22;1496;51.404;7.232;2023-03-01T14:39:48;5.50;89.40
2973;DHT22;1496;51.404;7.232;2023-03-01T14:42:14;5.50;88.40
2973;DHT22;1496;51.404;7.232;2023-03-01T14:44:42;5.50;86.20
2973;DHT22;1496;51.404;7.232;2023-03-01T14:47:19;5.40;85.30
2973;DHT22;1496;51.404;7.232;2023-03-01T14:49:46;5.40;84.90
2973;DHT22;1496;51.404;7.232;2023-03-01T14:52:21;5.40;85.10
2973;DHT22;1496;51.404;7.232;2023-03-01T14:54:53;5.40;84.60
2973;DHT22;1496;51.404;7.232;2023-03-01T14:57:25;5.50;83.70
2973;DHT22;1496;51.404;7.232;2023-03-01T14:59:53;5.50;83.20
2973;DHT22;1496;51.404;7.232;2023-03-01T15:02:23;5.50;81.90
2973;DHT22;1496;51.404;7.232;2023-03-01T15:04:52;5.50;81.50
2973;DHT22;1496;51.404;7.232;2023-03-01T15:07:19;5.40;80.10
2973;DHT22;1496;51.404;7.232;2023-03-01T15:09:45;5.40;79.80
2973;DHT22;1496;51.404;7.232;2023-03-01T15:12:36;5.40;78.50
2973;DHT22;1496;51.404;7.232;2023-03-01T15:17:56;5.40;76.90
2973;DHT22;1496;51.404;7.232;2023-03-01T15:20:25;5.30;76.10
2973;DHT22;1496;51.404;7.232;2023-03-01T15:22:53;5.30;76.00
2973;DHT22;1496;51.404;7.232;2023-03-01T15:25:22;5.30;76.00
2973;DHT22;1496;51.404;7.232;2023-03-01T15:27:50;5.30;76.60
2973;DHT22;1496;51.404;7.232;2023-03-01T15:30:32;5.30;76.10
2973;DHT22;1496;51.404;7.232;2023-03-01T15:35:51;5.30;74.10
2973;DHT22;1496;51.404;7.232;2023-03-01T15:41:27;5.20;73.20
2973;DHT22;1496;51.404;7.232;2023-03-01T15:43:51;5.20;73.70
2973;DHT22;1496;51.404;7.232;2023-03-01T15:46:29;5.20;74.30
2973;DHT22;1496;51.404;7.232;2023-03-01T15:48:59;5.10;70.80
2973;DHT22;1496;51.404;7.232;2023-03-01T15:51:35;5.10;70.10
2973;DHT22;1496;51.404;7.232;2023-03-01T15:54:10;5.10;69.60
2973;DHT22;1496;51.404;7.232;2023-03-01T15:56:37;5.00;68.90
2973;DHT22;1496;51.404;7.232;2023-03-01T15:59:03;5.00;69.50
2973;DHT22;1496;51.404;7.232;2023-03-01T16:01:29;5.00;69.30
2973;DHT22;1496;51.404;7.232;2023-03-01T16:03:55;5.00;68.70
2973;DHT22;1496;51.404;7.232;2023-03-01T16:06:22;5.00;67.80
2973;DHT22;1496;51.404;7.232;2023-03-01T16:08:47;5.00;82.30
2973;DHT22;1496;51.404;7.232;2023-03-01T16:11:18;5.00;67.00
2973;DHT22;1496;51.404;7.232;2023-03-01T16:13:44;4.90;67.70
2973;DHT22;1496;51.404;7.232;2023-03-01T16:16:11;5.00;67.10
2973;DHT22;1496;51.404;7.232;2023-03-01T16:18:40;4.90;67.10
2973;DHT22;1496;51.404;7.232;2023-03-01T16:21:06;4.90;67.00
2973;DHT22;1496;51.404;7.232;2023-03-01T16:23:32;4.90;67.20
2973;DHT22;1496;51.404;7.232;2023-03-01T16:26:00;4.90;66.90
2973;DHT22;1496;51.404;7.232;2023-03-01T16:28:26;4.90;67.50
2973;DHT22;1496;51.404;7.232;2023-03-01T16:30:52;4.80;67.90
2973;DHT22;1496;51.404;7.232;2023-03-01T16:33:18;4.70;67.20
2973;DHT22;1496;51.404;7.232;2023-03-01T16:35:43;4.70;67.30
2973;DHT22;1496;51.404;7.232;2023-03-01T16:38:10;4.70;67.80
2973;DHT22;1496;51.404;7.232;2023-03-01T16:40:36;4.70;66.80
2973;DHT22;1496;51.404;7.232;2023-03-01T16:43:02;4.70;66.90
2973;DHT22;1496;51.404;7.232;2023-03-01T16:45:33;4.70;67.20
2973;DHT22;1496;51.404;7.232;2023-03-01T16:48:01;4.60;67.70
2973;DHT22;1496;51.404;7.232;2023-03-01T16:50:26;4.60;66.40
2973;DHT22;1496;51.404;7.232;2023-03-01T16:52:53;4.60;65.80
2973;DHT22;1496;51.404;7.232;2023-03-01T16:55:19;4.60;65.70
2973;DHT22;1496;51.404;7.232;2023-03-01T16:57:44;4.60;65.50
2973;DHT22;1496;51.404;7.232;2023-03-01T17:00:11;4.50;65.60
2973;DHT22;1496;51.404;7.232;2023-03-01T17:02:38;4.50;66.50
2973;DHT22;1496;51.404;7.232;2023-03-01T17:05:05;4.50;65.20
2973;DHT22;1496;51.404;7.232;2023-03-01T17:07:32;4.50;65.10
2973;DHT22;1496;51.404;7.232;2023-03-01T17:10:03;4.40;66.00
2973;DHT22;1496;51.404;7.232;2023-03-01T17:12:29;4.40;65.50
2973;DHT22;1496;51.404;7.232;2023-03-01T17:14:55;4.40;65.50
2973;DHT22;1496;51.404;7.232;2023-03-01T17:17:21;4.40;65.30
2973;DHT22;1496;51.404;7.232;2023-03-01T17:19:47;4.30;65.80
2973;DHT22;1496;51.404;7.232;2023-03-01T17:22:12;4.20;65.70
2973;DHT22;1496;51.404;7.232;2023-03-01T17:24:42;4.20;65.70
2973;DHT22;1496;51.404;7.232;2023-03-01T17:27:08;4.20;65.50
2973;DHT22;1496;51.404;7.232;2023-03-01T17:29:34;4.20;65.00
2973;DHT22;1496;51.404;7.232;2023-03-01T17:32:01;4.20;65.00
2973;DHT22;1496;51.404;7.232;2023-03-01T17:34:26;4.20;65.40
2973;DHT22;1496;51.404;7.232;2023-03-01T17:36:52;4.20;64.90
2973;DHT22;1496;51.404;7.232;2023-03-01T17:39:18;4.10;64.30
2973;DHT22;1496;51.404;7.232;2023-03-01T17:41:51;4.10;63.70
2973;DHT22;1496;51.404;7.232;2023-03-01T17:44:17;4.00;64.00
2973;DHT22;1496;51.404;7.232;2023-03-01T17:46:43;4.00;63.40
2973;DHT22;1496;51.404;7.232;2023-03-01T17:49:08;4.00;63.40
2973;DHT22;1496;51.404;7.232;2023-03-01T17:51:34;3.90;62.70
2973;DHT22;1496;51.404;7.232;2023-03-01T17:54:00;3.90;62.90
2973;DHT22;1496;51.404;7.232;2023-03-01T17:56:25;3.90;61.90
2973;DHT22;1496;51.404;7.232;2023-03-01T17:58:51;3.90;61.70
2973;DHT22;1496;51.404;7.232;2023-03-01T18:01:18;3.80;61.70
2973;DHT22;1496;51.404;7.232;2023-03-01T18:03:44;3.90;61.60
2973;DHT22;1496;51.404;7.232;2023-03-01T18:06:16;3.80;61.50
2973;DHT22;1496;51.404;7.232;2023-03-01T18:08:42;3.80;60.60
2973;DHT22;1496;51.404;7.232;2023-03-01T18:11:10;3.80;60.90
2973;DHT22;1496;51.404;7.232;2023-03-01T18:13:36;3.80;59.60
2973;DHT22;1496;51.404;7.232;2023-03-01T18:16:08;3.80;60.10
2973;DHT22;1496;51.404;7.232;2023-03-01T18:18:35;3.80;59.60
2973;DHT22;1496;51.404;7.232;2023-03-01T18:21:01;3.70;59.50
2973;DHT22;1496;51.404;7.232;2023-03-01T18:23:27;3.70;59.60
2973;DHT22;1496;51.404;7.232;2023-03-01T18:26:08;3.70;59.60
2973;DHT22;1496;51.404;7.232;2023-03-01T18:28:34;3.60;59.10